Time;durP1;ratioP1;P1;durP2;ratioP2;P2;SDS_P1;SDS_P2;PMS_P1;PMS_P2;Temp;Humidity;BMP_temperature;BMP_pressure;BME280_temperature;BME280_humidity;BME280_pressure;Samples;Min_cycle;Max_cycle;Signal;HPM_P1;HPM_P2
2023/06/08 00:00:51;;;;;;;6.83;5.73;;;;;;;17.18;82.57;97955.06;4200893;28;20680;-87
2023/06/08 00:02:55;;;;;;;7.33;6.00;;;;;;;17.17;83.77;97946.34;4191350;28;21204;-86
2023/06/08 00:05:02;;;;;;;6.77;6.07;;;;;;;17.16;84.02;97954.41;4204247;28;20633;-87
2023/06/08 00:07:08;;;;;;;6.47;5.10;;;;;;;17.13;82.78;97955.50;4194489;28;20714;-87
2023/06/08 00:09:12;;;;;;;6.10;5.50;;;;;;;17.10;82.93;97954.97;4194094;28;21207;-87
2023/06/08 00:11:15;;;;;;;5.77;5.23;;;;;;;17.05;83.12;97958.06;4184365;28;20620;-87
2023/06/08 00:13:18;;;;;;;6.57;5.97;;;;;;;16.99;83.83;97953.38;4185694;28;20673;-87
2023/06/08 00:15:21;;;;;;;6.50;5.63;;;;;;;16.96;83.21;97954.63;4190855;28;21213;-87
2023/06/08 00:17:27;;;;;;;6.80;5.20;;;;;;;16.89;82.49;97949.13;4203371;28;20633;-87
2023/06/08 00:19:30;;;;;;;8.40;6.13;;;;;;;16.87;82.50;97956.38;4189231;28;20777;-87
2023/06/08 00:21:34;;;;;;;6.40;5.67;;;;;;;16.82;83.62;97944.59;4188797;28;20610;-87
2023/06/08 00:23:37;;;;;;;8.33;5.90;;;;;;;16.83;84.26;97951.53;4191014;28;20622;-87
2023/06/08 00:25:40;;;;;;;6.77;6.07;;;;;;;16.82;82.72;97950.69;4200279;28;20720;-86
2023/06/08 00:27:44;;;;;;;6.37;5.70;;;;;;;16.81;84.40;97953.47;4205166;28;20630;-87
2023/06/08 00:29:47;;;;;;;6.43;5.80;;;;;;;16.79;85.02;97953.59;4194418;28;20618;-87
2023/06/08 00:31:51;;;;;;;7.47;5.70;;;;;;;16.77;82.95;97958.22;4201346;28;20672;-87
2023/06/08 00:33:55;;;;;;;6.60;5.90;;;;;;;16.73;83.47;97954.22;4200167;28;20622;-87
2023/06/08 00:36:00;;;;;;;5.93;5.40;;;;;;;16.66;84.29;97947.88;4203802;28;20695;-86
2023/06/08 00:38:04;;;;;;;6.10;5.50;;;;;;;16.62;83.53;97951.75;4195750;28;20723;-87
2023/06/08 00:40:08;;;;;;;6.17;5.57;;;;;;;16.63;85.32;97957.88;4186525;28;20662;-86
2023/06/08 00:42:12;;;;;;;7.17;6.30;;;;;;;16.57;85.36;97950.56;4204752;28;20634;-87
2023/06/08 00:44:15;;;;;;;6.77;6.17;;;;;;;16.52;83.60;97961.50;4206256;28;20634;-86
2023/06/08 00:46:19;;;;;;;6.20;5.60;;;;;;;16.48;84.96;97955.81;4207968;28;20631;-87
2023/06/08 00:48:24;;;;;;;6.07;5.47;;;;;;;16.44;85.22;97965.00;4208403;28;20662;-87
2023/06/08 00:50:28;;;;;;;6.63;5.93;;;;;;;16.44;85.48;97955.28;4185674;28;21186;-87
2023/06/08 00:52:32;;;;;;;5.83;5.23;;;;;;;16.46;84.97;97963.06;4200686;28;20640;-87
2023/06/08 00:54:39;;;;;;;6.60;6.00;;;;;;;16.48;85.18;97969.00;4191554;28;20621;-87
2023/06/08 00:56:48;;;;;;;6.53;5.90;;;;;;;16.47;85.92;97964.72;4193190;28;20674;-87
2023/06/08 00:59:00;;;;;;;6.63;5.97;;;;;;;16.44;85.69;97965.00;4194694;28;20671;-87
2023/06/08 01:01:05;;;;;;;6.30;5.53;;;;;;;16.41;84.23;97968.75;4180677;28;20665;-87
2023/06/08 01:03:10;;;;;;;5.97;5.43;;;;;;;16.38;83.35;97962.94;4189945;28;20632;-87
2023/06/08 01:05:16;;;;;;;7.80;6.30;;;;;;;16.32;83.82;97961.72;4192095;28;21161;-86
2023/06/08 01:07:27;;;;;;;7.57;6.07;;;;;;;16.25;84.45;97960.63;4197728;28;21256;-87
2023/06/08 01:09:38;;;;;;;7.07;6.03;;;;;;;16.20;84.58;97956.72;4187950;28;20683;-87
2023/06/08 01:11:51;;;;;;;7.10;6.40;;;;;;;16.12;84.29;97957.44;4188014;28;20691;-86
2023/06/08 01:13:58;;;;;;;6.47;5.87;;;;;;;16.09;85.26;97955.09;4183745;28;20633;-86
2023/06/08 01:16:03;;;;;;;7.47;6.67;;;;;;;16.07;85.17;97956.19;4191921;28;20738;-86
2023/06/08 01:18:08;;;;;;;6.23;5.63;;;;;;;16.01;84.74;97950.66;4202514;28;20681;-86
2023/06/08 01:20:20;;;;;;;7.80;6.30;;;;;;;15.97;84.66;97954.56;4189628;28;20717;-86
2023/06/08 01:22:29;;;;;;;6.63;5.93;;;;;;;15.93;85.81;97959.25;4174824;28;21272;-86
2023/06/08 01:24:36;;;;;;;7.97;6.40;;;;;;;15.94;85.48;97960.13;4203086;28;20621;-86
2023/06/08 01:26:42;;;;;;;7.00;6.30;;;;;;;15.93;85.85;97951.38;4200142;28;20613;-86
2023/06/08 01:28:48;;;;;;;6.93;6.30;;;;;;;15.96;85.95;97953.72;4186975;28;20627;-87
2023/06/08 01:30:52;;;;;;;7.43;6.63;;;;;;;16.01;85.28;97958.56;4186728;28;20657;-87
2023/06/08 01:32:55;;;;;;;6.90;6.23;;;;;;;16.03;85.82;97950.38;4191740;28;21120;-87
2023/06/08 01:34:59;;;;;;;6.97;6.37;;;;;;;16.05;85.37;97947.63;4190122;28;20665;-86
2023/06/08 01:37:06;;;;;;;6.67;5.97;;;;;;;16.01;86.36;97946.22;4190491;28;20620;-86
2023/06/08 01:39:14;;;;;;;7.03;6.33;;;;;;;16.02;86.23;97953.97;4202606;28;20655;-86
2023/06/08 01:41:21;;;;;;;9.60;7.03;;;;;;;15.97;86.03;97949.31;4205635;28;20659;-87
2023/06/08 01:43:27;;;;;;;7.80;7.00;;;;;;;15.98;86.13;97943.88;4204258;28;20714;-86
2023/06/08 01:45:34;;;;;;;7.13;6.30;;;;;;;15.94;85.00;97953.03;4187951;28;20723;-86
2023/06/08 01:47:40;;;;;;;7.60;6.87;;;;;;;15.91;86.80;97955.13;4200066;28;20694;-86
2023/06/08 01:49:45;;;;;;;7.57;6.77;;;;;;;15.90;85.53;97938.50;4185527;28;20681;-86
2023/06/08 01:51:49;;;;;;;6.47;5.87;;;;;;;15.85;85.76;97946.00;4174673;28;20673;-87
2023/06/08 01:54:00;;;;;;;7.20;6.43;;;;;;;15.83;87.05;97947.94;4177192;28;20613;-86
2023/06/08 01:56:04;;;;;;;7.80;5.93;;;;;;;15.83;86.49;97947.09;4183321;28;20642;-87
2023/06/08 01:58:10;;;;;;;7.50;6.70;;;;;;;15.84;85.95;97948.75;4180473;28;20629;-87
2023/06/08 02:00:17;;;;;;;7.43;6.63;;;;;;;15.82;85.86;97941.00;4185299;28;20673;-87
2023/06/08 02:02:20;;;;;;;6.53;5.80;;;;;;;15.83;85.37;97947.94;4176553;28;20972;-86
2023/06/08 02:04:23;;;;;;;6.43;5.83;;;;;;;15.81;86.84;97947.25;4189798;28;20639;-86
2023/06/08 02:06:27;;;;;;;6.87;6.10;;;;;;;15.79;86.72;97940.47;4177369;28;20663;-86
2023/06/08 02:08:30;;;;;;;7.30;6.50;;;;;;;15.76;86.37;97936.31;4183945;28;20975;-87
2023/06/08 02:10:33;;;;;;;7.50;6.50;;;;;;;15.74;86.67;97937.41;4180339;28;20634;-86
2023/06/08 02:12:36;;;;;;;7.47;6.30;;;;;;;15.72;86.74;97940.19;4184112;28;21415;-87
2023/06/08 02:14:41;;;;;;;7.70;6.70;;;;;;;15.66;86.40;97930.22;4189195;28;20637;-86
2023/06/08 02:16:46;;;;;;;8.53;6.73;;;;;;;15.66;87.55;97932.84;4178843;28;20656;-87
2023/06/08 02:18:50;;;;;;;7.20;6.50;;;;;;;15.64;85.76;97940.06;4176859;28;21043;-86
2023/06/08 02:20:55;;;;;;;9.20;7.40;;;;;;;15.62;86.78;97935.91;4182325;28;20713;-86
2023/06/08 02:22:58;;;;;;;8.10;7.30;;;;;;;15.61;87.15;97936.88;4191626;28;21220;-86
2023/06/08 02:25:01;;;;;;;8.10;7.30;;;;;;;15.60;87.42;97935.22;4187829;28;21263;-87
2023/06/08 02:27:05;;;;;;;7.20;6.50;;;;;;;15.55;86.11;97939.25;4189084;28;21029;-86
2023/06/08 02:29:08;;;;;;;7.53;6.63;;;;;;;15.54;85.90;97937.59;4188567;28;20735;-86
2023/06/08 02:31:13;;;;;;;8.73;7.57;;;;;;;15.51;86.24;97943.13;4189796;28;20655;-87
2023/06/08 02:33:17;;;;;;;8.43;7.40;;;;;;;15.49;87.89;97942.44;4198045;28;20628;-86
2023/06/08 02:35:20;;;;;;;8.83;7.57;;;;;;;15.49;88.11;97952.94;4188906;28;20670;-87
2023/06/08 02:37:25;;;;;;;7.73;6.97;;;;;;;15.47;87.07;97939.94;4202918;28;20635;-86
2023/06/08 02:39:28;;;;;;;8.07;7.27;;;;;;;15.48;88.24;97940.75;4197440;28;21225;-87
2023/06/08 02:41:31;;;;;;;7.50;6.80;;;;;;;15.46;87.78;97943.53;4188441;28;20654;-86
2023/06/08 02:43:35;;;;;;;8.23;7.43;;;;;;;15.44;87.66;97945.47;4185392;28;20628;-86
2023/06/08 02:45:39;;;;;;;9.10;8.20;;;;;;;15.38;88.22;97938.13;4185471;28;20633;-87
2023/06/08 02:47:44;;;;;;;9.07;8.17;;;;;;;15.37;88.21;97946.16;4187682;28;20646;-86
2023/06/08 02:49:47;;;;;;;8.10;7.30;;;;;;;15.33;87.35;97950.03;4203180;28;20806;-86
2023/06/08 02:51:51;;;;;;;9.20;8.20;;;;;;;15.27;87.35;97945.31;4199588;28;20632;-87
2023/06/08 02:53:54;;;;;;;8.50;7.60;;;;;;;15.22;87.42;97945.72;4181985;28;20624;-86
2023/06/08 02:55:58;;;;;;;8.30;7.50;;;;;;;15.18;87.37;97948.75;4183491;28;20748;-86
2023/06/08 02:58:03;;;;;;;8.97;8.07;;;;;;;15.15;87.07;97946.38;4183684;28;20627;-87
2023/06/08 03:00:08;;;;;;;9.23;8.33;;;;;;;15.13;86.92;97951.75;4191926;28;20664;-87
2023/06/08 03:02:30;;;;;;;8.50;7.70;;;;;;;15.09;87.57;97945.13;4201769;28;20769;-86
2023/06/08 03:04:37;;;;;;;8.27;7.43;;;;;;;15.03;87.16;97942.19;4195590;28;21218;-86
2023/06/08 03:06:42;;;;;;;9.47;8.50;;;;;;;15.05;88.22;97949.94;4199763;28;20654;-87
2023/06/08 03:08:47;;;;;;;8.40;7.60;;;;;;;15.02;88.26;97943.19;4185571;28;20633;-87
2023/06/08 03:10:51;;;;;;;7.97;7.13;;;;;;;15.04;87.50;97943.88;4189479;28;20702;-86
2023/06/08 03:12:54;;;;;;;9.00;8.10;;;;;;;15.07;87.82;97941.78;4187085;28;20617;-87
2023/06/08 03:14:59;;;;;;;9.00;7.40;;;;;;;15.13;86.96;97940.44;4207511;28;20623;-86
2023/06/08 03:17:04;;;;;;;7.97;6.97;;;;;;;15.12;86.98;97946.63;4188898;28;20638;-87
2023/06/08 03:19:12;;;;;;;8.03;7.23;;;;;;;15.11;88.03;97948.44;4183431;28;20635;-87
2023/06/08 03:21:20;;;;;;;10.70;7.63;;;;;;;15.08;88.45;97953.16;4186437;28;20637;-87
2023/06/08 03:23:28;;;;;;;8.73;7.93;;;;;;;15.04;88.50;97945.66;4193699;28;20703;-87
2023/06/08 03:25:34;;;;;;;7.17;6.43;;;;;;;14.99;87.91;97943.44;4185256;28;20956;-86
2023/06/08 03:27:37;;;;;;;8.97;7.87;;;;;;;14.96;87.41;97945.50;4184108;28;20630;-86
2023/06/08 03:29:45;;;;;;;8.90;8.00;;;;;;;14.98;88.10;97933.09;4182642;28;20719;-86
2023/06/08 03:31:49;;;;;;;9.07;8.17;;;;;;;15.00;88.14;97936.38;4206651;28;20632;-86
2023/06/08 03:33:54;;;;;;;10.30;8.03;;;;;;;15.04;87.98;97937.78;4183278;28;20686;-86
2023/06/08 03:36:00;;;;;;;8.60;7.70;;;;;;;15.04;87.67;97935.16;4187734;28;20637;-87
2023/06/08 03:38:22;;;;;;;8.83;7.63;;;;;;;15.05;87.62;97942.91;4181862;28;20649;-86
2023/06/08 03:40:27;;;;;;;8.60;7.70;;;;;;;15.06;88.31;97943.72;4206411;28;20640;-87
2023/06/08 03:42:32;;;;;;;9.37;8.30;;;;;;;15.02;87.76;97947.59;4186024;28;20655;-86
2023/06/08 03:44:35;;;;;;;8.70;7.80;;;;;;;15.00;87.45;97947.72;4200047;28;21076;-86
2023/06/08 03:46:39;;;;;;;8.40;7.50;;;;;;;15.03;88.21;97955.31;4186208;28;20998;-86
2023/06/08 03:48:42;;;;;;;9.53;7.83;;;;;;;15.06;87.73;97949.00;4185188;28;20674;-86
2023/06/08 03:50:47;;;;;;;8.80;7.83;;;;;;;15.07;87.05;97955.91;4196241;28;20660;-86
2023/06/08 03:52:51;;;;;;;8.97;8.07;;;;;;;15.05;87.57;97953.41;4184090;28;20635;-86
2023/06/08 03:54:56;;;;;;;8.77;7.87;;;;;;;15.08;88.78;97948.72;4187737;28;20615;-86
2023/06/08 03:56:59;;;;;;;8.47;7.40;;;;;;;15.07;88.15;97955.91;4181550;28;20627;-86
2023/06/08 03:59:03;;;;;;;8.60;7.70;;;;;;;15.02;87.18;97960.72;4217357;28;20722;-86
2023/06/08 04:01:10;;;;;;;9.90;8.67;;;;;;;14.97;87.55;97955.03;4185033;28;20624;-86
2023/06/08 04:03:13;;;;;;;9.60;8.27;;;;;;;14.97;87.15;97958.50;4216300;28;21325;-86
2023/06/08 04:05:17;;;;;;;8.40;7.50;;;;;;;14.97;87.33;97963.75;4201083;28;20663;-86
2023/06/08 04:07:21;;;;;;;8.57;7.67;;;;;;;15.02;89.00;97968.59;4195991;28;21404;-86
2023/06/08 04:09:24;;;;;;;10.10;9.10;;;;;;;15.08;88.06;97975.00;4197492;28;21027;-86
2023/06/08 04:11:28;;;;;;;10.60;9.50;;;;;;;15.16;88.69;97983.00;4190364;28;20677;-86
2023/06/08 04:13:32;;;;;;;11.10;10.00;;;;;;;15.24;88.50;97985.00;4185217;28;20722;-86
2023/06/08 04:15:35;;;;;;;10.80;9.70;;;;;;;15.34;89.18;97975.34;4187735;28;21280;-86
2023/06/08 04:17:41;;;;;;;10.40;9.40;;;;;;;15.39;89.98;97973.94;4181544;28;20632;-86
2023/06/08 04:19:46;;;;;;;10.10;9.10;;;;;;;15.42;89.15;97971.03;4201109;28;20632;-86
2023/06/08 04:21:56;;;;;;;9.37;8.47;;;;;;;15.48;88.27;97970.50;4191094;28;21011;-86
2023/06/08 04:24:02;;;;;;;9.67;7.97;;;;;;;15.45;86.88;97981.28;4203983;28;20644;-86
2023/06/08 04:26:08;;;;;;;9.00;8.10;;;;;;;15.46;86.35;97979.50;4199450;28;20628;-86
2023/06/08 04:28:13;;;;;;;9.30;8.00;;;;;;;15.45;87.10;97978.66;4192298;28;21276;-87
2023/06/08 04:30:17;;;;;;;8.73;7.83;;;;;;;15.43;87.72;97975.34;4204458;28;20664;-86
2023/06/08 04:32:20;;;;;;;8.90;8.00;;;;;;;15.45;85.91;97981.28;4198665;28;20660;-86
2023/06/08 04:34:31;;;;;;;8.77;7.87;;;;;;;15.44;86.72;97979.66;4188013;28;20629;-86
2023/06/08 04:36:35;;;;;;;9.90;8.03;;;;;;;15.43;86.82;97983.22;4193168;28;20667;-86
2023/06/08 04:38:41;;;;;;;9.67;8.67;;;;;;;15.44;86.64;97986.69;4192036;28;20714;-86
2023/06/08 04:40:48;;;;;;;9.40;8.40;;;;;;;15.47;87.49;97983.78;4215400;28;20977;-86
2023/06/08 04:42:51;;;;;;;9.60;8.60;;;;;;;15.51;87.85;97982.53;4185403;28;20651;-86
2023/06/08 04:44:59;;;;;;;9.67;8.73;;;;;;;15.55;86.66;97990.03;4186842;28;20631;-86
2023/06/08 04:47:07;;;;;;;11.20;9.83;;;;;;;15.59;88.10;97988.75;4186425;28;20682;-86
2023/06/08 04:49:15;;;;;;;10.40;9.30;;;;;;;15.66;87.25;97990.69;4204941;28;20623;-86
2023/06/08 04:51:23;;;;;;;11.43;9.90;;;;;;;15.75;88.46;97991.69;4188913;28;20644;-86
2023/06/08 04:53:30;;;;;;;10.53;9.43;;;;;;;15.82;89.18;97993.63;4175016;28;20638;-86
2023/06/08 04:55:33;;;;;;;12.37;10.53;;;;;;;15.87;87.47;98001.91;4196632;28;20628;-86
2023/06/08 04:57:36;;;;;;;12.60;11.13;;;;;;;15.92;88.38;97999.72;4177465;28;21433;-86
2023/06/08 04:59:40;;;;;;;11.30;10.20;;;;;;;16.00;88.14;98007.72;4191217;28;20715;-86
2023/06/08 05:01:44;;;;;;;11.03;9.93;;;;;;;16.08;87.84;97999.97;4181836;28;21000;-86
2023/06/08 05:03:48;;;;;;;10.93;9.73;;;;;;;16.20;88.98;98004.91;4178603;28;21312;-86
2023/06/08 05:05:51;;;;;;;11.17;9.33;;;;;;;16.31;88.23;97999.56;4178124;28;22887;-86
2023/06/08 05:07:55;;;;;;;11.00;9.83;;;;;;;16.44;88.31;98000.06;4195586;28;21233;-87
2023/06/08 05:10:00;;;;;;;10.77;9.67;;;;;;;16.55;89.33;98006.00;4191736;28;20633;-86
2023/06/08 05:12:05;;;;;;;10.67;9.60;;;;;;;16.68;87.89;98009.13;4210043;28;20673;-86
2023/06/08 05:14:10;;;;;;;10.50;9.40;;;;;;;16.76;87.73;98001.31;4198525;28;20623;-86
2023/06/08 05:16:15;;;;;;;10.03;9.03;;;;;;;16.83;86.97;98001.59;4203226;28;20725;-86
2023/06/08 05:18:19;;;;;;;10.97;9.27;;;;;;;16.93;87.38;98005.84;4208335;28;20632;-86
2023/06/08 05:20:24;;;;;;;10.40;9.30;;;;;;;17.06;87.44;98007.19;4199585;28;20981;-86
2023/06/08 05:22:28;;;;;;;12.40;10.47;;;;;;;17.22;86.31;98009.19;4183912;28;20690;-86
2023/06/08 05:24:31;;;;;;;11.23;10.13;;;;;;;17.39;85.76;98019.75;4192065;28;20653;-87
2023/06/08 05:26:34;;;;;;;12.03;10.83;;;;;;;17.52;86.38;98009.69;4191343;28;20629;-87
2023/06/08 05:28:38;;;;;;;12.10;10.90;;;;;;;17.67;86.26;98014.31;4191098;28;21037;-87
2023/06/08 05:30:41;;;;;;;11.80;10.70;;;;;;;17.84;85.62;98020.56;4181957;28;20642;-87
2023/06/08 05:32:44;;;;;;;11.70;10.50;;;;;;;18.01;85.08;98017.91;4203352;28;20671;-87
2023/06/08 05:34:50;;;;;;;11.80;10.63;;;;;;;18.18;84.28;98017.09;4193449;28;20699;-87
2023/06/08 05:36:54;;;;;;;15.50;11.37;;;;;;;18.38;84.66;98018.56;4198587;28;20752;-87
2023/06/08 05:38:57;;;;;;;12.37;11.13;;;;;;;18.58;83.87;98026.97;4200361;28;21173;-87
2023/06/08 05:41:00;;;;;;;11.63;10.43;;;;;;;18.63;84.26;98019.41;4181059;28;20623;-88
2023/06/08 05:43:04;;;;;;;11.50;10.30;;;;;;;18.70;83.19;98023.09;4177377;28;21313;-88
2023/06/08 05:45:08;;;;;;;12.40;11.20;;;;;;;18.81;83.31;98030.75;4201171;28;20734;-87
2023/06/08 05:47:12;;;;;;;12.77;11.20;;;;;;;18.88;83.55;98022.03;4196142;28;20690;-87
2023/06/08 05:49:15;;;;;;;11.57;10.47;;;;;;;18.92;82.44;98027.81;4194313;28;20645;-88
2023/06/08 05:51:20;;;;;;;13.03;11.73;;;;;;;18.91;82.67;98029.66;4192101;28;21028;-88
2023/06/08 05:53:24;;;;;;;12.30;11.10;;;;;;;18.93;82.99;98034.78;4175938;28;21057;-87
2023/06/08 05:55:27;;;;;;;13.43;12.13;;;;;;;19.28;83.43;98037.28;4177190;28;20638;-87
2023/06/08 05:57:30;;;;;;;11.60;10.50;;;;;;;19.67;81.89;98050.66;4194066;28;20629;-87
2023/06/08 05:59:33;;;;;;;12.30;11.10;;;;;;;20.01;80.51;98051.38;4178243;28;20620;-88
2023/06/08 06:01:37;;;;;;;10.77;9.77;;;;;;;20.33;80.57;98046.97;4178077;28;20664;-87
2023/06/08 06:03:41;;;;;;;11.57;10.47;;;;;;;20.64;78.88;98051.41;4187070;28;20646;-88
2023/06/08 06:05:45;;;;;;;11.50;10.40;;;;;;;20.88;77.53;98057.53;4189672;28;20921;-88
2023/06/08 06:07:50;;;;;;;12.10;10.90;;;;;;;21.12;76.27;98048.66;4197660;28;20635;-87
2023/06/08 06:09:53;;;;;;;12.03;10.83;;;;;;;21.37;76.58;98056.38;4188813;28;20628;-88
2023/06/08 06:11:56;;;;;;;12.00;10.80;;;;;;;21.64;76.59;98056.78;4180148;28;21081;-87
2023/06/08 06:13:59;;;;;;;11.33;10.23;;;;;;;21.86;74.77;98053.31;4188103;28;20701;-88
2023/06/08 06:16:03;;;;;;;12.27;11.17;;;;;;;22.07;73.86;98051.72;4190881;28;20659;-87
2023/06/08 06:18:06;;;;;;;11.60;10.50;;;;;;;22.23;73.24;98052.44;4181925;28;21426;-87
2023/06/08 06:20:10;;;;;;;12.10;10.90;;;;;;;22.41;72.61;98044.97;4203486;28;21014;-87
2023/06/08 06:22:13;;;;;;;11.80;10.60;;;;;;;22.47;72.06;98044.25;4195808;28;20988;-88
2023/06/08 06:24:20;;;;;;;12.30;11.20;;;;;;;22.63;71.99;98041.47;4208646;28;20691;-88
2023/06/08 06:26:23;;;;;;;12.43;10.57;;;;;;;22.79;72.02;98046.63;4188820;28;20635;-87
2023/06/08 06:28:27;;;;;;;12.03;10.83;;;;;;;22.96;71.97;98030.38;4192215;28;20744;-87
2023/06/08 06:30:31;;;;;;;11.97;10.70;;;;;;;23.16;70.96;98034.13;4180672;28;20654;-88
2023/06/08 06:32:34;;;;;;;12.13;11.03;;;;;;;23.46;71.87;98049.91;4198123;28;21373;-87
2023/06/08 06:34:38;;;;;;;12.30;11.10;;;;;;;23.70;72.46;98046.97;4187593;28;20630;-88
2023/06/08 06:36:41;;;;;;;12.83;11.57;;;;;;;23.88;70.48;98042.88;4186654;28;20629;-88
2023/06/08 06:38:45;;;;;;;12.30;11.20;;;;;;;24.08;69.64;98045.75;4195121;28;20701;-88
2023/06/08 06:40:52;;;;;;;11.30;10.20;;;;;;;24.29;68.71;98052.72;4173577;28;20737;-87
2023/06/08 06:42:55;;;;;;;10.30;9.40;;;;;;;24.55;69.04;98054.84;4200200;28;20630;-88
2023/06/08 06:45:11;;;;;;;10.17;9.23;;;;;;;24.74;69.09;98052.34;4195765;28;21386;-87
2023/06/08 06:47:14;;;;;;;10.80;9.77;;;;;;;24.89;67.86;98042.41;4201556;28;20636;-87
2023/06/08 06:49:17;;;;;;;10.33;9.23;;;;;;;25.06;66.79;98049.94;4199311;28;20659;-87
2023/06/08 06:51:20;;;;;;;9.67;8.77;;;;;;;25.23;67.70;98044.09;4181277;28;20729;-88
2023/06/08 06:53:24;;;;;;;10.50;9.50;;;;;;;25.42;65.61;98039.88;4199182;28;20649;-87
2023/06/08 06:55:27;;;;;;;10.10;9.10;;;;;;;25.56;65.88;98036.25;4182782;28;20702;-87
2023/06/08 06:57:32;;;;;;;10.07;9.07;;;;;;;25.70;64.71;98030.78;4200114;28;20623;-87
2023/06/08 06:59:36;;;;;;;10.37;9.47;;;;;;;25.82;63.38;98029.19;4201409;28;20721;-87
2023/06/08 07:01:41;;;;;;;9.40;8.60;;;;;;;25.88;62.98;98031.88;4197867;28;20634;-87
2023/06/08 07:03:46;;;;;;;9.47;8.47;;;;;;;25.97;63.26;98035.22;4184154;28;20634;-87
2023/06/08 07:05:50;;;;;;;10.93;9.93;;;;;;;26.08;66.10;98033.59;4192330;28;20758;-87
2023/06/08 07:07:53;;;;;;;8.70;7.90;;;;;;;26.28;62.31;98030.97;4176717;28;20662;-88
2023/06/08 07:09:56;;;;;;;8.40;7.70;;;;;;;26.40;61.89;98026.66;4182477;28;20738;-87
2023/06/08 07:11:59;;;;;;;8.50;7.50;;;;;;;26.44;62.00;98028.72;4193412;28;20644;-87
2023/06/08 07:14:19;;;;;;;8.80;8.00;;;;;;;26.64;62.25;98030.41;4199462;28;20630;-82
2023/06/08 07:16:24;;;;;;;8.77;7.93;;;;;;;26.84;62.25;98025.03;4199312;28;20706;-83
2023/06/08 07:18:30;;;;;;;7.50;6.80;;;;;;;26.91;62.62;98021.31;4193727;28;20624;-83
2023/06/08 07:20:34;;;;;;;8.00;7.30;;;;;;;27.07;61.78;98023.56;4201159;28;20723;-83
2023/06/08 07:22:38;;;;;;;8.40;7.50;;;;;;;27.23;61.57;98023.16;4202338;28;20642;-82
2023/06/08 07:25:01;;;;;;;9.10;8.20;;;;;;;27.30;61.91;98019.38;4198042;28;20734;-84
2023/06/08 07:27:25;;;;;;;9.40;8.53;;;;;;;27.36;61.42;98021.22;4196143;28;20636;-83
2023/06/08 07:29:29;;;;;;;8.30;7.60;;;;;;;27.55;62.05;98023.06;4199138;28;20649;-83
2023/06/08 07:31:34;;;;;;;9.07;8.23;;;;;;;27.71;61.93;98027.94;4190735;28;20782;-87
2023/06/08 07:33:37;;;;;;;10.33;9.30;;;;;;;27.85;61.78;98030.34;4182946;28;20987;-86
2023/06/08 07:35:40;;;;;;;9.50;8.70;;;;;;;28.00;63.75;98022.84;4184098;28;20720;-87
2023/06/08 07:37:43;;;;;;;9.50;8.70;;;;;;;28.07;62.34;98020.94;4195288;28;20636;-86
2023/06/08 07:39:47;;;;;;;9.40;8.60;;;;;;;28.02;59.31;98018.09;4197746;28;20628;-82
2023/06/08 07:41:51;;;;;;;8.90;7.93;;;;;;;28.05;60.44;98015.81;4183488;28;20993;-86
2023/06/08 07:43:55;;;;;;;9.23;8.33;;;;;;;28.16;61.19;98020.53;4201688;28;20628;-84
2023/06/08 07:46:00;;;;;;;9.43;8.53;;;;;;;28.25;60.28;98021.91;4198065;28;22116;-85
2023/06/08 07:48:03;;;;;;;9.20;8.50;;;;;;;28.36;60.78;98020.41;4185329;28;21207;-86
2023/06/08 07:50:07;;;;;;;9.50;8.60;;;;;;;28.44;59.86;98020.94;4191847;28;20634;-86
2023/06/08 07:52:11;;;;;;;9.63;8.73;;;;;;;28.47;59.93;98023.19;4203742;28;20632;-86
2023/06/08 07:54:19;;;;;;;9.30;8.47;;;;;;;28.50;60.10;98018.19;4199512;28;20669;-83
2023/06/08 07:56:22;;;;;;;10.03;9.13;;;;;;;28.57;60.27;98015.47;4192672;28;20635;-82
2023/06/08 07:58:25;;;;;;;9.57;8.70;;;;;;;28.63;60.56;98017.28;4185746;28;21444;-82
2023/06/08 08:00:31;;;;;;;9.90;9.00;;;;;;;28.67;59.92;98013.13;4186010;28;20627;-84
2023/06/08 08:02:35;;;;;;;9.27;8.37;;;;;;;28.70;59.49;98012.69;4203257;28;20634;-82
2023/06/08 08:04:38;;;;;;;8.87;8.03;;;;;;;28.74;59.96;98014.72;4186696;28;21039;-84
2023/06/08 08:06:42;;;;;;;9.00;8.10;;;;;;;28.82;59.13;98014.47;4204008;28;20642;-83
2023/06/08 08:08:45;;;;;;;8.50;7.73;;;;;;;28.89;58.55;98017.09;4202706;28;21193;-85
2023/06/08 08:10:48;;;;;;;9.07;8.27;;;;;;;28.98;58.53;98018.47;4195190;28;20649;-84
2023/06/08 08:12:52;;;;;;;9.70;8.80;;;;;;;29.04;58.36;98016.50;4201226;28;21028;-84
2023/06/08 08:14:55;;;;;;;9.20;7.63;;;;;;;29.16;59.76;98017.41;4176875;28;20656;-84
2023/06/08 08:16:58;;;;;;;10.03;9.13;;;;;;;29.30;59.52;98021.66;4184700;28;20641;-84
2023/06/08 08:19:03;;;;;;;8.80;8.10;;;;;;;29.32;58.83;98016.03;4185183;28;20629;-84
2023/06/08 08:21:06;;;;;;;9.63;8.70;;;;;;;29.35;58.05;98011.06;4203562;28;20625;-85
2023/06/08 08:23:10;;;;;;;9.23;8.43;;;;;;;29.40;58.41;98015.78;4191965;28;21214;-85
2023/06/08 08:25:13;;;;;;;8.90;8.10;;;;;;;29.49;59.12;98012.56;4184397;28;20644;-84
2023/06/08 08:27:16;;;;;;;9.63;8.83;;;;;;;29.56;59.64;98016.00;4190018;28;20626;-85
2023/06/08 08:29:20;;;;;;;8.50;7.80;;;;;;;29.62;58.08;98012.41;4185738;28;20634;-85
2023/06/08 08:31:24;;;;;;;8.43;7.63;;;;;;;29.65;58.90;98007.38;4192649;28;21201;-84
2023/06/08 08:33:28;;;;;;;9.00;8.20;;;;;;;29.71;57.95;98013.72;4186082;28;20635;-84
2023/06/08 08:35:35;;;;;;;8.40;7.60;;;;;;;29.81;58.45;98011.34;4217506;28;21260;-85
2023/06/08 08:37:38;;;;;;;9.10;7.90;;;;;;;29.88;60.21;98009.41;4189895;28;21011;-84
2023/06/08 08:39:41;;;;;;;11.07;9.97;;;;;;;29.83;57.97;98004.72;4204930;28;21197;-84
2023/06/08 08:41:47;;;;;;;8.77;7.97;;;;;;;29.78;56.71;98004.50;4202487;28;21195;-85
2023/06/08 08:43:53;;;;;;;7.70;7.00;;;;;;;29.85;56.57;98002.59;4202372;28;20633;-84
2023/06/08 08:45:58;;;;;;;8.50;7.80;;;;;;;29.94;57.40;97995.84;4183272;28;20760;-84
2023/06/08 08:48:02;;;;;;;9.10;8.20;;;;;;;29.94;56.20;98000.44;4201419;28;20635;-84
2023/06/08 08:50:09;;;;;;;8.60;7.80;;;;;;;29.89;55.89;97998.41;4196581;28;20667;-85
2023/06/08 08:52:17;;;;;;;8.53;7.83;;;;;;;29.98;58.13;98002.44;4200943;28;20658;-85
2023/06/08 08:54:31;;;;;;;8.00;7.30;;;;;;;30.02;56.96;97998.22;4188993;28;20641;-85
2023/06/08 08:56:37;;;;;;;8.70;7.90;;;;;;;30.09;57.09;97997.06;4196696;28;21052;-85
2023/06/08 08:58:40;;;;;;;8.50;7.70;;;;;;;30.07;56.19;97992.97;4188703;28;20638;-85
2023/06/08 09:00:48;;;;;;;8.33;7.63;;;;;;;30.04;55.98;97998.81;4201897;28;20720;-85
2023/06/08 09:02:52;;;;;;;7.17;6.57;;;;;;;30.03;56.15;97998.00;4201688;28;20631;-84
2023/06/08 09:05:06;;;;;;;9.10;8.20;;;;;;;30.01;54.89;97989.34;4198550;28;20730;-85
2023/06/08 09:07:09;;;;;;;8.30;7.60;;;;;;;29.98;55.42;97994.38;4188604;28;20651;-86
2023/06/08 09:09:14;;;;;;;8.13;7.43;;;;;;;30.04;55.56;97994.25;4198263;28;20649;-86
2023/06/08 09:11:17;;;;;;;7.60;6.93;;;;;;;30.12;56.28;97993.94;4197665;28;20658;-86
2023/06/08 09:13:21;;;;;;;8.37;7.53;;;;;;;30.14;56.00;97983.75;4185516;28;20644;-86
2023/06/08 09:15:30;;;;;;;7.40;6.70;;;;;;;30.18;55.58;97984.94;4201950;28;20704;-86
2023/06/08 09:17:38;;;;;;;8.17;7.47;;;;;;;30.17;55.98;97980.59;4184112;28;20672;-86
2023/06/08 09:19:52;;;;;;;7.17;6.50;;;;;;;30.27;55.12;97980.06;4199862;28;21247;-86
2023/06/08 09:21:56;;;;;;;8.03;7.33;;;;;;;30.29;54.96;97969.88;4191976;28;20631;-86
2023/06/08 09:24:08;;;;;;;7.20;6.60;;;;;;;30.28;54.86;97960.97;4197148;28;20663;-86
2023/06/08 09:26:32;;;;;;;7.67;7.00;;;;;;;30.40;57.32;97961.00;4194831;28;21508;-86
2023/06/08 09:28:37;;;;;;;7.30;6.70;;;;;;;30.49;55.44;97960.44;4183575;28;20628;-86
2023/06/08 09:30:40;;;;;;;8.00;7.23;;;;;;;30.56;54.50;97963.84;4202718;28;20639;-86
2023/06/08 09:32:44;;;;;;;7.70;7.00;;;;;;;30.56;53.97;97961.97;4198072;28;21050;-86
2023/06/08 09:34:51;;;;;;;7.57;6.87;;;;;;;30.61;54.99;97958.56;4199995;28;20654;-86
2023/06/08 09:37:06;;;;;;;7.83;6.63;;;;;;;30.65;56.75;97952.47;4181846;28;20636;-86
2023/06/08 09:39:09;;;;;;;7.40;6.53;;;;;;;30.62;56.03;97947.56;4185430;28;20652;-86
2023/06/08 09:41:15;;;;;;;7.63;6.97;;;;;;;30.44;54.74;97949.53;4196370;28;20643;-86
2023/06/08 09:43:31;;;;;;;7.93;7.23;;;;;;;30.08;55.03;97949.66;4187540;28;20643;-86
2023/06/08 09:45:43;;;;;;;6.77;6.17;;;;;;;29.86;56.58;97944.22;4182375;28;20631;-86